Time;durP1;ratioP1;P1;durP2;ratioP2;P2;SDS_P1;SDS_P2;PMS_P1;PMS_P2;Temp;Humidity;BMP_temperature;BMP_pressure;BME280_temperature;BME280_humidity;BME280_pressure;Samples;Min_cycle;Max_cycle;Signal;HPM_P1;HPM_P2
2021/04/28 00:01:26;;;;;;;7.15;4.50;;;7.70;99.90;;;;;;4962582;28;20162;-77
2021/04/28 00:03:52;;;;;;;6.88;5.15;;;7.70;99.90;;;;;;4961717;28;20101;-77
2021/04/28 00:06:18;;;;;;;8.88;5.82;;;7.50;99.90;;;;;;4963795;28;20107;-77
2021/04/28 00:08:44;;;;;;;8.35;4.88;;;7.50;99.90;;;;;;4963465;28;20084;-77
2021/04/28 00:11:10;;;;;;;6.38;4.80;;;7.60;99.90;;;;;;4951021;28;20452;-77
2021/04/28 00:13:35;;;;;;;6.55;4.65;;;7.40;99.90;;;;;;4969722;28;20095;-77
2021/04/28 00:16:01;;;;;;;8.40;6.07;;;7.20;99.90;;;;;;4963770;28;20125;-76
2021/04/28 00:18:27;;;;;;;7.22;4.55;;;7.20;99.90;;;;;;4963369;28;20083;-77
2021/04/28 00:20:53;;;;;;;6.32;4.85;;;7.20;99.90;;;;;;4953786;28;20118;-76
2021/04/28 00:23:19;;;;;;;10.43;4.80;;;7.20;99.90;;;;;;4952742;28;20528;-77
2021/04/28 00:25:45;;;;;;;7.03;5.82;;;7.20;99.90;;;;;;4952903;28;20071;-76
2021/04/28 00:28:11;;;;;;;7.28;4.97;;;7.20;99.90;;;;;;4946102;28;20102;-76
2021/04/28 00:30:37;;;;;;;6.90;5.40;;;7.00;99.90;;;;;;4950533;28;20095;-76
2021/04/28 00:33:03;;;;;;;6.22;5.03;;;7.00;99.90;;;;;;4953396;28;20515;-76
2021/04/28 00:35:29;;;;;;;7.20;5.63;;;7.10;99.90;;;;;;4951248;28;20110;-77
2021/04/28 00:37:54;;;;;;;7.57;5.15;;;7.10;99.90;;;;;;4959389;28;20551;-77
2021/04/28 00:40:27;;;;;;;6.50;4.78;;;7.10;99.90;;;;;;4957448;28;20154;-77
2021/04/28 00:42:54;;;;;;;5.97;4.40;;;7.10;99.90;;;;;;4971644;28;20177;-76
2021/04/28 00:45:21;;;;;;;10.65;5.05;;;7.20;99.90;;;;;;4971433;28;20082;-77
2021/04/28 00:47:47;;;;;;;9.73;5.72;;;7.10;99.90;;;;;;4953317;28;20475;-77
2021/04/28 00:50:17;;;;;;;7.20;4.93;;;7.10;99.90;;;;;;4971665;28;20083;-77
2021/04/28 00:52:42;;;;;;;6.43;5.15;;;6.70;99.90;;;;;;4964160;28;20099;-78
2021/04/28 00:55:09;;;;;;;6.05;5.10;;;6.50;99.90;;;;;;4971346;28;20153;-76
2021/04/28 00:57:34;;;;;;;6.78;5.13;;;6.40;99.90;;;;;;4966440;28;20477;-77
2021/04/28 01:00:03;;;;;;;6.50;5.10;;;6.40;99.90;;;;;;4940920;28;20093;-76
2021/04/28 01:02:28;;;;;;;7.15;5.35;;;6.50;99.90;;;;;;4962218;28;20186;-77
2021/04/28 01:04:54;;;;;;;7.10;5.07;;;6.40;99.90;;;;;;4955946;28;20087;-76
2021/04/28 01:07:20;;;;;;;6.43;4.95;;;6.40;99.90;;;;;;4963309;28;20099;-77
2021/04/28 01:09:47;;;;;;;7.82;5.25;;;6.40;99.90;;;;;;4972274;28;20516;-77
2021/04/28 01:12:13;;;;;;;6.10;4.80;;;6.40;99.90;;;;;;4954694;28;20610;-75
2021/04/28 01:14:39;;;;;;;8.68;6.10;;;6.60;99.90;;;;;;4953434;28;20083;-76
2021/04/28 01:17:06;;;;;;;6.53;4.90;;;6.50;99.90;;;;;;4965647;28;20091;-76
2021/04/28 01:19:38;;;;;;;7.07;4.97;;;6.50;99.90;;;;;;4958292;28;20170;-77
2021/04/28 01:22:06;;;;;;;8.77;5.90;;;6.20;99.90;;;;;;4951771;28;20103;-76
2021/04/28 01:24:31;;;;;;;6.80;5.28;;;6.20;99.90;;;;;;4972206;28;20162;-76
2021/04/28 01:27:02;;;;;;;7.05;5.43;;;5.90;99.90;;;;;;4956931;28;20187;-76
2021/04/28 01:29:28;;;;;;;9.13;4.70;;;5.90;99.90;;;;;;4962295;28;20072;-76
2021/04/28 01:31:56;;;;;;;6.93;5.00;;;6.00;99.90;;;;;;4963690;28;20095;-76
2021/04/28 01:34:23;;;;;;;6.40;5.32;;;5.80;99.90;;;;;;4967843;28;20590;-76
2021/04/28 01:36:50;;;;;;;7.65;5.93;;;5.90;99.90;;;;;;4935383;29;20503;-77
2021/04/28 01:39:17;;;;;;;7.20;5.35;;;5.90;99.90;;;;;;4968015;28;20090;-76
2021/04/28 01:41:46;;;;;;;6.38;5.10;;;6.00;99.90;;;;;;4971741;28;20090;-77
2021/04/28 01:44:15;;;;;;;6.55;5.10;;;6.00;99.90;;;;;;4959545;28;20102;-77
2021/04/28 01:46:42;;;;;;;6.85;4.95;;;5.90;99.90;;;;;;4952523;29;20548;-77
2021/04/28 01:49:08;;;;;;;7.60;5.78;;;5.70;99.90;;;;;;4953727;29;20674;-77
2021/04/28 01:51:35;;;;;;;9.20;5.18;;;5.90;99.90;;;;;;4936596;29;20082;-77
2021/04/28 01:54:02;;;;;;;6.65;5.22;;;5.90;99.90;;;;;;4955326;28;20491;-77
2021/04/28 01:56:28;;;;;;;6.88;5.15;;;5.80;99.90;;;;;;4953821;28;20093;-77
2021/04/28 01:58:56;;;;;;;6.82;5.00;;;5.80;99.90;;;;;;4958057;28;20079;-76
2021/04/28 02:01:23;;;;;;;7.95;5.50;;;5.70;99.90;;;;;;4974829;28;20076;-77
2021/04/28 02:03:49;;;;;;;6.78;4.55;;;5.70;99.90;;;;;;4974657;28;20166;-77
2021/04/28 02:06:15;;;;;;;6.13;4.95;;;5.60;99.90;;;;;;4956768;28;20117;-77
2021/04/28 02:08:40;;;;;;;9.43;5.68;;;5.70;99.90;;;;;;4979105;28;20445;-76
2021/04/28 02:11:06;;;;;;;7.78;5.47;;;5.70;99.90;;;;;;4976363;28;20080;-76
2021/04/28 02:13:41;;;;;;;7.45;5.82;;;5.50;99.90;;;;;;4976302;28;20090;-76
2021/04/28 02:16:08;;;;;;;6.78;5.10;;;5.60;99.90;;;;;;4975820;28;20094;-76
2021/04/28 02:18:35;;;;;;;7.18;4.97;;;5.70;99.90;;;;;;4979245;28;20134;-77
2021/04/28 02:21:02;;;;;;;7.57;5.90;;;5.60;99.90;;;;;;4974720;28;20079;-77
2021/04/28 02:23:30;;;;;;;9.73;5.53;;;5.60;99.90;;;;;;4974573;28;20631;-77
2021/04/28 02:25:57;;;;;;;6.15;4.50;;;5.40;99.90;;;;;;4961979;28;20079;-76
2021/04/28 02:28:23;;;;;;;7.30;5.18;;;5.20;99.90;;;;;;4965946;28;20092;-75
2021/04/28 02:30:48;;;;;;;7.88;5.40;;;5.20;99.90;;;;;;4956293;28;20078;-77
2021/04/28 02:33:14;;;;;;;7.28;5.45;;;5.10;99.90;;;;;;4964047;28;20618;-77
2021/04/28 02:35:41;;;;;;;6.70;4.75;;;5.00;99.90;;;;;;4958735;28;20447;-77
2021/04/28 02:38:25;;;;;;;8.38;5.18;;;4.70;99.90;;;;;;4956079;28;20107;-77
2021/04/28 02:40:52;;;;;;;8.20;5.83;;;4.90;99.90;;;;;;4955016;28;20115;-77
2021/04/28 02:43:19;;;;;;;8.60;5.90;;;4.90;99.90;;;;;;4966678;28;20092;-77
2021/04/28 02:45:48;;;;;;;6.88;5.10;;;5.00;99.90;;;;;;4950591;28;20087;-77
2021/04/28 02:48:19;;;;;;;6.18;4.60;;;4.90;99.90;;;;;;4963115;28;20098;-76
2021/04/28 02:50:46;;;;;;;7.53;5.60;;;4.80;99.90;;;;;;4973625;28;20068;-76
2021/04/28 02:53:15;;;;;;;9.80;6.00;;;4.90;99.90;;;;;;4968666;28;20096;-78
2021/04/28 02:55:42;;;;;;;7.28;5.53;;;4.90;99.90;;;;;;4952405;28;20090;-76
2021/04/28 02:58:08;;;;;;;7.18;5.35;;;4.80;99.90;;;;;;4962269;28;20130;-77
2021/04/28 03:00:34;;;;;;;11.38;5.68;;;4.40;99.90;;;;;;4970562;28;20572;-77
2021/04/28 03:03:00;;;;;;;9.18;5.03;;;4.30;99.90;;;;;;4965993;28;20107;-77
2021/04/28 03:05:26;;;;;;;9.73;5.15;;;4.40;99.90;;;;;;4969984;28;20083;-76
2021/04/28 03:07:55;;;;;;;8.23;5.70;;;4.40;99.90;;;;;;4970679;28;20130;-76
2021/04/28 03:10:21;;;;;;;6.03;4.88;;;4.50;99.90;;;;;;4965983;28;20079;-77
2021/04/28 03:12:47;;;;;;;5.72;4.88;;;4.60;99.90;;;;;;4955074;28;20091;-76
2021/04/28 03:15:15;;;;;;;8.02;5.53;;;4.60;99.90;;;;;;4956486;28;20749;-76
2021/04/28 03:17:41;;;;;;;7.65;5.38;;;4.50;99.90;;;;;;4940224;29;20080;-77
2021/04/28 03:20:08;;;;;;;7.20;5.07;;;4.40;99.90;;;;;;4963404;28;20076;-76
2021/04/28 03:22:36;;;;;;;8.35;5.22;;;4.50;99.90;;;;;;4954058;28;20122;-76
2021/04/28 03:25:03;;;;;;;6.70;5.60;;;4.50;99.90;;;;;;4951373;28;20524;-77
2021/04/28 03:27:28;;;;;;;7.45;5.97;;;4.50;99.90;;;;;;4953694;28;20087;-76
2021/04/28 03:29:54;;;;;;;6.82;5.20;;;4.40;99.90;;;;;;4953614;28;20492;-77
2021/04/28 03:32:20;;;;;;;8.07;5.85;;;4.30;99.90;;;;;;4962191;28;20100;-76
2021/04/28 03:34:45;;;;;;;6.88;5.70;;;4.30;99.90;;;;;;4951333;28;20080;-77
2021/04/28 03:37:11;;;;;;;7.72;5.63;;;4.20;99.90;;;;;;4972337;28;20163;-76
2021/04/28 03:39:37;;;;;;;6.97;5.47;;;4.30;99.90;;;;;;4972494;28;20455;-77
2021/04/28 03:42:03;;;;;;;7.05;5.15;;;4.20;99.90;;;;;;4970403;28;20555;-77
2021/04/28 03:44:29;;;;;;;10.85;5.80;;;4.00;99.90;;;;;;4969384;28;20087;-76
2021/04/28 03:46:54;;;;;;;8.60;5.75;;;4.10;99.90;;;;;;4962144;28;20154;-77
2021/04/28 03:49:21;;;;;;;8.43;5.53;;;4.20;99.90;;;;;;4959759;28;20563;-76
2021/04/28 03:51:47;;;;;;;11.20;6.30;;;4.20;99.90;;;;;;4969440;28;20102;-76
2021/04/28 03:54:14;;;;;;;6.47;5.30;;;4.20;99.90;;;;;;4991629;23;20114;-77
2021/04/28 03:56:40;;;;;;;9.27;5.20;;;4.10;99.90;;;;;;4964869;28;20114;-79
2021/04/28 03:59:07;;;;;;;6.93;5.65;;;4.20;99.90;;;;;;4950962;28;20167;-78
2021/04/28 04:01:33;;;;;;;9.07;5.47;;;4.10;99.90;;;;;;4964735;28;20083;-78
2021/04/28 04:03:59;;;;;;;7.30;5.97;;;4.20;99.90;;;;;;4968904;28;20146;-79
2021/04/28 04:06:24;;;;;;;8.18;5.95;;;4.10;99.90;;;;;;4964222;28;20068;-79
2021/04/28 04:08:50;;;;;;;6.90;4.95;;;4.20;99.90;;;;;;4967999;28;20122;-79
2021/04/28 04:11:15;;;;;;;10.02;5.72;;;4.20;99.90;;;;;;4953935;28;20451;-77
2021/04/28 04:13:41;;;;;;;7.45;5.63;;;4.20;99.90;;;;;;4970560;28;20106;-78
2021/04/28 04:16:06;;;;;;;8.10;5.82;;;4.20;99.90;;;;;;4951999;28;20513;-77
2021/04/28 04:18:32;;;;;;;7.18;5.85;;;4.30;99.90;;;;;;4965648;28;20083;-78
2021/04/28 04:20:58;;;;;;;7.63;5.47;;;4.30;99.90;;;;;;4947059;28;20076;-78
2021/04/28 04:23:23;;;;;;;9.70;5.90;;;4.00;99.90;;;;;;4973216;28;20462;-78
2021/04/28 04:25:49;;;;;;;6.13;5.32;;;4.00;99.90;;;;;;4964959;28;20076;-78
2021/04/28 04:28:14;;;;;;;7.18;5.45;;;4.00;99.90;;;;;;4953366;28;20103;-75
2021/04/28 04:30:40;;;;;;;6.40;4.80;;;4.10;99.90;;;;;;4961559;28;20071;-77
2021/04/28 04:33:05;;;;;;;8.18;5.90;;;3.90;99.90;;;;;;4938511;28;20068;-78
2021/04/28 04:35:31;;;;;;;7.95;5.68;;;3.80;99.90;;;;;;4964269;28;20086;-77
2021/04/28 04:37:57;;;;;;;10.05;5.47;;;3.80;99.90;;;;;;4953393;28;20081;-79
2021/04/28 04:40:22;;;;;;;8.63;5.75;;;3.90;99.90;;;;;;4954148;28;20126;-78
2021/04/28 04:42:48;;;;;;;7.40;5.10;;;3.90;99.90;;;;;;4935824;28;20191;-78
2021/04/28 04:45:14;;;;;;;9.45;6.30;;;4.00;99.90;;;;;;4961124;28;20095;-77
2021/04/28 04:47:40;;;;;;;8.18;5.93;;;4.00;99.90;;;;;;4946158;28;20119;-79
2021/04/28 04:50:07;;;;;;;12.48;6.78;;;3.70;99.90;;;;;;4952690;28;20115;-77
2021/04/28 04:52:33;;;;;;;8.00;5.43;;;3.80;99.90;;;;;;4948874;29;20087;-77
2021/04/28 04:54:59;;;;;;;7.35;5.90;;;3.90;99.90;;;;;;4936424;28;20107;-77
2021/04/28 04:57:26;;;;;;;6.65;5.05;;;4.00;99.90;;;;;;4944553;28;20145;-77
2021/04/28 04:59:52;;;;;;;6.82;5.32;;;4.10;99.90;;;;;;4965330;28;20874;-77
2021/04/28 05:02:17;;;;;;;9.15;6.03;;;4.20;99.90;;;;;;4947820;29;20079;-77
2021/04/28 05:04:43;;;;;;;6.43;5.57;;;4.30;99.90;;;;;;4949902;28;20173;-77
2021/04/28 05:07:08;;;;;;;8.75;5.82;;;4.40;99.90;;;;;;4945291;29;20151;-77
2021/04/28 05:09:34;;;;;;;8.05;5.47;;;4.20;99.90;;;;;;4937166;29;20460;-78
2021/04/28 05:12:00;;;;;;;6.90;5.43;;;4.40;99.90;;;;;;4952924;28;20456;-76
2021/04/28 05:14:25;;;;;;;9.23;5.85;;;4.40;99.90;;;;;;4952090;28;20151;-77
2021/04/28 05:16:51;;;;;;;8.85;5.50;;;4.50;99.90;;;;;;4934173;29;20202;-76
2021/04/28 05:19:16;;;;;;;8.10;5.53;;;4.60;99.90;;;;;;4947230;29;20092;-76
2021/04/28 05:21:42;;;;;;;9.55;6.18;;;4.80;99.90;;;;;;4956754;28;20082;-78
2021/04/28 05:24:08;;;;;;;9.13;7.10;;;4.90;99.90;;;;;;4953282;28;20506;-78
2021/04/28 05:26:33;;;;;;;10.00;7.03;;;4.90;99.90;;;;;;4952342;28;20079;-77
2021/04/28 05:28:59;;;;;;;8.02;5.95;;;5.00;99.90;;;;;;4966961;28;20182;-76
2021/04/28 05:31:25;;;;;;;8.00;6.30;;;5.10;99.90;;;;;;4967311;28;20158;-77
2021/04/28 05:33:50;;;;;;;10.00;7.55;;;5.20;99.90;;;;;;4960056;28;20181;-77
2021/04/28 05:36:16;;;;;;;10.15;7.00;;;5.30;99.90;;;;;;4965436;28;20106;-79
2021/04/28 05:38:42;;;;;;;9.13;6.10;;;5.40;99.90;;;;;;4944607;28;20106;-78
2021/04/28 05:41:07;;;;;;;9.02;6.82;;;5.50;99.90;;;;;;4952739;28;20091;-76
2021/04/28 05:43:34;;;;;;;9.50;6.68;;;5.60;99.90;;;;;;4965002;28;20170;-76
2021/04/28 05:46:01;;;;;;;9.90;6.53;;;5.50;99.90;;;;;;4965961;28;20102;-76
2021/04/28 05:48:27;;;;;;;7.88;6.10;;;5.60;99.90;;;;;;4966300;28;20145;-77
2021/04/28 05:50:52;;;;;;;11.95;6.63;;;5.70;99.90;;;;;;4970161;28;20543;-77
2021/04/28 05:53:18;;;;;;;12.10;8.80;;;5.80;99.90;;;;;;4950489;28;20566;-76
2021/04/28 05:55:43;;;;;;;9.30;7.53;;;5.90;99.90;;;;;;4981085;28;20075;-79
2021/04/28 05:58:09;;;;;;;8.38;6.72;;;6.00;99.90;;;;;;4953387;28;20879;-77
2021/04/28 06:00:36;;;;;;;9.55;7.65;;;6.10;99.90;;;;;;4948392;28;20447;-76
2021/04/28 06:03:02;;;;;;;10.57;6.85;;;6.20;99.90;;;;;;4952873;28;20082;-76
2021/04/28 06:05:28;;;;;;;12.77;8.15;;;6.40;99.90;;;;;;4960220;28;20111;-77
2021/04/28 06:07:54;;;;;;;12.88;7.55;;;6.50;99.90;;;;;;4969221;28;20521;-77
2021/04/28 06:10:20;;;;;;;9.15;7.30;;;6.60;99.90;;;;;;4950597;28;20115;-76
2021/04/28 06:12:46;;;;;;;9.35;6.97;;;6.80;99.90;;;;;;4947790;28;20099;-76
2021/04/28 06:15:13;;;;;;;10.88;7.78;;;7.00;99.90;;;;;;4933381;29;20425;-78
2021/04/28 06:17:40;;;;;;;12.07;6.22;;;7.10;99.90;;;;;;4947290;28;20076;-77
2021/04/28 06:20:09;;;;;;;14.60;7.15;;;7.30;99.90;;;;;;4960157;28;20080;-77
2021/04/28 06:22:35;;;;;;;10.43;7.90;;;7.50;99.90;;;;;;4954642;28;20145;-76
2021/04/28 06:25:00;;;;;;;9.13;6.72;;;7.60;99.90;;;;;;4939717;28;20574;-77
2021/04/28 06:27:26;;;;;;;11.20;7.20;;;7.80;99.90;;;;;;4959451;28;20091;-78
2021/04/28 06:29:52;;;;;;;10.85;7.93;;;7.90;99.90;;;;;;4950810;28;20079;-77
2021/04/28 06:32:18;;;;;;;11.77;7.80;;;8.00;99.90;;;;;;4960639;28;20090;-76
2021/04/28 06:34:43;;;;;;;12.15;7.18;;;8.20;99.90;;;;;;4958129;28;20095;-77
2021/04/28 06:37:10;;;;;;;9.07;7.10;;;8.30;99.90;;;;;;4965090;28;20075;-76
2021/04/28 06:39:35;;;;;;;10.20;6.65;;;8.50;99.90;;;;;;4942141;28;20079;-75
2021/04/28 06:42:01;;;;;;;11.27;6.78;;;8.50;99.90;;;;;;4957990;28;20493;-77
2021/04/28 06:44:27;;;;;;;10.05;7.28;;;8.80;99.90;;;;;;4951897;28;20100;-75
2021/04/28 06:46:52;;;;;;;10.63;7.45;;;8.80;99.90;;;;;;4968310;28;20574;-76
2021/04/28 06:49:18;;;;;;;9.68;7.22;;;8.90;99.90;;;;;;4970577;28;20535;-76
2021/04/28 06:51:44;;;;;;;14.73;7.57;;;9.00;99.90;;;;;;4967102;28;20072;-78
2021/04/28 06:54:09;;;;;;;10.50;7.30;;;9.30;99.90;;;;;;4950197;28;20099;-76
2021/04/28 06:56:35;;;;;;;12.55;8.43;;;9.50;99.90;;;;;;4968542;28;20575;-75
2021/04/28 06:59:01;;;;;;;10.18;7.65;;;9.60;99.90;;;;;;4968039;28;20538;-77
2021/04/28 07:01:26;;;;;;;14.27;7.80;;;9.60;99.90;;;;;;4972717;28;20232;-77
2021/04/28 07:03:54;;;;;;;13.23;7.97;;;9.60;99.90;;;;;;4959777;28;20121;-77
2021/04/28 07:06:19;;;;;;;10.85;7.80;;;9.70;99.90;;;;;;4967553;28;20099;-76
2021/04/28 07:08:45;;;;;;;12.32;8.30;;;9.80;99.90;;;;;;4969220;28;20095;-76
2021/04/28 07:11:10;;;;;;;14.00;8.60;;;9.90;99.90;;;;;;4954452;28;20071;-77
2021/04/28 07:13:36;;;;;;;14.25;7.82;;;10.00;99.90;;;;;;4954423;28;20091;-76
2021/04/28 07:16:02;;;;;;;11.77;9.13;;;10.00;99.90;;;;;;4956249;28;20080;-76
2021/04/28 07:18:27;;;;;;;16.92;8.82;;;10.10;99.90;;;;;;4962881;28;20088;-77
2021/04/28 07:20:53;;;;;;;10.65;8.57;;;10.20;99.90;;;;;;4971130;28;20083;-77
2021/04/28 07:23:19;;;;;;;16.50;9.10;;;10.30;99.90;;;;;;4970137;28;20107;-76
2021/04/28 07:25:44;;;;;;;12.02;8.50;;;10.30;99.90;;;;;;4958055;28;20091;-76
2021/04/28 07:28:10;;;;;;;13.70;8.43;;;10.40;99.90;;;;;;4966435;28;20106;-76
2021/04/28 07:30:36;;;;;;;12.90;9.15;;;10.50;99.90;;;;;;4965876;28;20297;-76
2021/04/28 07:33:03;;;;;;;14.32;9.30;;;10.50;99.90;;;;;;4938596;28;20087;-76
2021/04/28 07:35:29;;;;;;;13.40;9.02;;;10.60;99.90;;;;;;4952127;28;20435;-76
2021/04/28 07:37:54;;;;;;;15.52;9.35;;;10.70;99.90;;;;;;4956861;28;20187;-76
2021/04/28 07:40:22;;;;;;;12.50;9.02;;;10.80;99.90;;;;;;4948021;28;20076;-76
2021/04/28 07:42:49;;;;;;;14.85;9.05;;;10.90;99.90;;;;;;4945951;28;20071;-76
2021/04/28 07:45:15;;;;;;;12.20;9.27;;;10.90;99.90;;;;;;4953886;28;20210;-76
2021/04/28 07:47:41;;;;;;;10.77;8.35;;;11.00;99.90;;;;;;4947499;28;20110;-77
2021/04/28 07:50:07;;;;;;;12.15;8.13;;;11.00;99.90;;;;;;4958722;28;20554;-76
2021/04/28 07:52:33;;;;;;;11.45;8.55;;;11.10;99.90;;;;;;4970819;28;20079;-77
2021/04/28 07:54:58;;;;;;;8.68;7.65;;;11.20;99.90;;;;;;4962777;28;20441;-76
2021/04/28 07:57:25;;;;;;;11.57;8.88;;;11.20;99.90;;;;;;4949986;28;20087;-77
2021/04/28 07:59:50;;;;;;;13.32;8.98;;;11.30;99.90;;;;;;4948463;28;20086;-75
2021/04/28 08:02:16;;;;;;;9.68;8.15;;;11.40;99.90;;;;;;4958389;28;20079;-77
2021/04/28 08:04:41;;;;;;;10.95;8.27;;;11.40;99.90;;;;;;4965869;28;20088;-76
2021/04/28 08:07:08;;;;;;;10.82;7.90;;;11.60;99.90;;;;;;4951245;28;20466;-79
2021/04/28 08:09:35;;;;;;;14.00;8.65;;;11.90;99.90;;;;;;4965340;28;20507;-77
2021/04/28 08:12:05;;;;;;;10.95;8.07;;;11.90;99.90;;;;;;4945204;29;20183;-77
2021/04/28 08:14:31;;;;;;;11.80;7.95;;;11.90;99.90;;;;;;4958793;28;20292;-78
2021/04/28 08:16:57;;;;;;;12.23;8.80;;;11.90;99.90;;;;;;4960193;28;20084;-77
2021/04/28 08:19:24;;;;;;;11.40;8.38;;;12.30;99.90;;;;;;4969549;28;20587;-77
2021/04/28 08:21:50;;;;;;;10.85;8.55;;;12.50;99.90;;;;;;4955157;28;20091;-76
2021/04/28 08:24:15;;;;;;;12.45;8.48;;;12.30;99.90;;;;;;4961852;28;20674;-76
2021/04/28 08:26:41;;;;;;;8.68;7.43;;;12.30;99.90;;;;;;4951758;28;20554;-76
2021/04/28 08:29:06;;;;;;;14.48;8.13;;;12.50;99.90;;;;;;4965998;28;20586;-76
2021/04/28 08:31:32;;;;;;;10.80;8.73;;;12.50;99.90;;;;;;4962684;28;20072;-77
2021/04/28 08:33:58;;;;;;;12.05;8.35;;;12.50;99.90;;;;;;4942178;28;20165;-74
2021/04/28 08:36:23;;;;;;;13.90;8.23;;;12.60;99.90;;;;;;4963317;28;20118;-75
2021/04/28 08:38:49;;;;;;;10.48;8.38;;;12.80;99.90;;;;;;4946627;28;20507;-75
2021/04/28 08:41:14;;;;;;;13.45;8.32;;;12.80;99.90;;;;;;4960371;28;20857;-75
2021/04/28 08:43:41;;;;;;;12.30;8.43;;;12.80;99.90;;;;;;4966876;28;20091;-77
2021/04/28 08:46:08;;;;;;;10.77;8.70;;;12.80;99.90;;;;;;4960704;28;20134;-76
2021/04/28 08:48:35;;;;;;;10.43;8.30;;;13.00;99.90;;;;;;4953578;28;20103;-78
2021/04/28 08:51:01;;;;;;;10.60;8.32;;;13.10;99.90;;;;;;4949672;28;20076;-76
2021/04/28 08:53:31;;;;;;;10.43;9.05;;;13.20;99.90;;;;;;4952811;28;20096;-76
2021/04/28 08:55:58;;;;;;;12.75;8.00;;;13.10;99.90;;;;;;4963329;28;20075;-77
2021/04/28 08:58:24;;;;;;;10.40;8.88;;;13.20;99.90;;;;;;4956326;28;20154;-77
2021/04/28 09:00:51;;;;;;;11.75;8.10;;;13.20;99.90;;;;;;4952234;28;20075;-76
2021/04/28 09:03:19;;;;;;;11.65;8.77;;;13.20;99.90;;;;;;4961132;28;20111;-75
2021/04/28 09:05:46;;;;;;;9.45;8.15;;;13.30;99.90;;;;;;4955375;28;20165;-76
2021/04/28 09:08:11;;;;;;;11.23;8.85;;;13.40;99.90;;;;;;4967175;28;20079;-76
2021/04/28 09:10:39;;;;;;;12.35;9.50;;;13.50;99.90;;;;;;4960619;28;20081;-78
2021/04/28 09:13:15;;;;;;;13.20;8.60;;;13.70;99.90;;;;;;4958107;28;20076;-76
2021/04/28 09:15:46;;;;;;;10.48;9.38;;;13.70;99.90;;;;;;4968752;28;20153;-77
2021/04/28 09:18:14;;;;;;;13.70;9.43;;;13.90;99.90;;;;;;4977712;28;20544;-75
2021/04/28 09:20:47;;;;;;;10.25;8.52;;;13.80;99.90;;;;;;4934143;28;20072;-77
2021/04/28 09:23:18;;;;;;;12.70;8.63;;;13.90;99.90;;;;;;4956105;28;20158;-77
2021/04/28 09:25:51;;;;;;;13.18;8.70;;;14.00;99.90;;;;;;4950994;28;20599;-78
2021/04/28 09:28:28;;;;;;;10.63;8.73;;;14.10;99.90;;;;;;4948087;28;20133;-78
2021/04/28 09:31:12;;;;;;;10.60;8.57;;;14.30;99.90;;;;;;4959690;28;20528;-78
2021/04/28 09:33:41;;;;;;;9.93;8.57;;;14.40;99.90;;;;;;4953997;28;20291;-80
2021/04/28 09:36:08;;;;;;;12.88;8.27;;;14.40;99.90;;;;;;4960204;28;20289;-77
2021/04/28 09:39:10;;;;;;;12.43;8.35;;;14.50;99.90;;;;;;4964413;28;20087;-77
2021/04/28 09:41:47;;;;;;;15.80;8.80;;;14.60;99.90;;;;;;4947917;29;20166;-78
2021/04/28 09:44:18;;;;;;;9.90;7.72;;;14.60;99.60;;;;;;4937850;28;20195;-77
2021/04/28 09:47:10;;;;;;;9.23;7.38;;;14.70;99.20;;;;;;4965102;28;20511;-77
2021/04/28 09:49:53;;;;;;;13.95;7.57;;;14.70;97.80;;;;;;4942652;28;20554;-77
2021/04/28 09:52:42;;;;;;;11.55;7.47;;;14.60;97.20;;;;;;4948601;28;20079;-77
2021/04/28 09:55:13;;;;;;;11.73;7.82;;;14.80;97.10;;;;;;4962114;28;20106;-77
2021/04/28 09:57:47;;;;;;;11.98;7.70;;;14.80;96.70;;;;;;4967089;28;20082;-77
2021/04/28 10:00:29;;;;;;;14.38;8.23;;;14.70;97.50;;;;;;4953149;28;20853;-77
2021/04/28 10:03:02;;;;;;;12.15;8.52;;;14.80;97.90;;;;;;4955185;28;20238;-77
2021/04/28 10:05:30;;;;;;;10.43;7.30;;;14.90;96.80;;;;;;4959530;28;20570;-77
2021/04/28 10:08:23;;;;;;;11.10;7.95;;;15.00;97.40;;;;;;4955515;28;20098;-77
2021/04/28 10:10:52;;;;;;;10.57;8.32;;;15.20;97.40;;;;;;4957295;28;20162;-77
2021/04/28 10:13:18;;;;;;;10.88;8.23;;;15.10;96.40;;;;;;4946853;28;20652;-78
2021/04/28 10:15:45;;;;;;;10.13;8.38;;;15.30;97.30;;;;;;4959622;28;20107;-77
2021/04/28 10:18:12;;;;;;;11.48;7.80;;;15.30;96.70;;;;;;4951289;28;20087;-77
2021/04/28 10:20:40;;;;;;;15.23;8.30;;;15.30;95.90;;;;;;4956204;28;20169;-78
2021/04/28 10:23:08;;;;;;;11.45;8.20;;;15.40;95.30;;;;;;4963313;28;20079;-78
2021/04/28 10:25:35;;;;;;;10.68;8.23;;;15.50;95.60;;;;;;4970333;28;20076;-78
2021/04/28 10:28:03;;;;;;;10.93;8.32;;;15.50;96.00;;;;;;4952900;28;20186;-77
2021/04/28 10:30:29;;;;;;;13.75;7.82;;;15.60;95.00;;;;;;4967945;28;20551;-77
2021/04/28 10:32:56;;;;;;;12.60;8.38;;;15.60;95.40;;;;;;4965227;28;20088;-79
2021/04/28 10:35:26;;;;;;;10.45;7.68;;;15.40;94.30;;;;;;4955526;28;20080;-80
2021/04/28 10:37:52;;;;;;;9.45;8.35;;;15.50;94.50;;;;;;4951889;28;20079;-80
2021/04/28 10:40:23;;;;;;;10.90;8.10;;;15.50;94.00;;;;;;4956443;28;20166;-79
2021/04/28 10:42:49;;;;;;;12.05;7.93;;;15.50;94.30;;;;;;4969051;28;20103;-78
2021/04/28 10:45:24;;;;;;;11.77;7.95;;;15.80;94.10;;;;;;4963181;28;20102;-78
2021/04/28 10:47:54;;;;;;;11.52;8.43;;;15.70;93.70;;;;;;4963128;28;20150;-78
2021/04/28 10:50:42;;;;;;;16.48;8.88;;;15.70;93.50;;;;;;4975323;28;20087;-78
2021/04/28 10:53:22;;;;;;;9.40;7.50;;;15.80;94.30;;;;;;4975787;28;20064;-78
2021/04/28 10:55:58;;;;;;;9.75;8.25;;;16.00;92.80;;;;;;4965420;28;20095;-78
2021/04/28 10:58:24;;;;;;;10.18;7.93;;;16.00;92.90;;;;;;4968442;28;20080;-78
2021/04/28 11:01:10;;;;;;;9.88;8.05;;;15.90;92.40;;;;;;4962877;28;20079;-78
2021/04/28 11:03:52;;;;;;;14.02;8.85;;;16.00;92.70;;;;;;4962846;28;20105;-80
2021/04/28 11:06:21;;;;;;;11.43;8.90;;;15.90;92.30;;;;;;4955105;28;20087;-77
2021/04/28 11:09:09;;;;;;;10.05;7.93;;;15.90;92.40;;;;;;4970792;28;20091;-78
2021/04/28 11:11:53;;;;;;;10.35;7.72;;;16.00;92.50;;;;;;4972142;28;20080;-77
2021/04/28 11:14:23;;;;;;;23.58;9.85;;;16.20;92.50;;;;;;4956617;28;20095;-79
2021/04/28 11:16:53;;;;;;;11.02;8.15;;;16.10;91.30;;;;;;4970447;28;20174;-77
2021/04/28 11:19:28;;;;;;;11.15;7.82;;;16.20;91.30;;;;;;4957183;28;20079;-80
2021/04/28 11:22:28;;;;;;;13.38;8.38;;;16.30;92.60;;;;;;4952886;29;20079;-76
2021/04/28 11:25:10;;;;;;;15.05;9.05;;;16.30;91.50;;;;;;4955535;28;20610;-76
2021/04/28 11:27:52;;;;;;;20.67;8.80;;;16.30;91.20;;;;;;4953942;28;20574;-77
2021/04/28 11:30:31;;;;;;;12.13;8.32;;;16.30;91.00;;;;;;4967247;28;20604;-77
2021/04/28 11:33:12;;;;;;;8.90;7.38;;;16.50;92.60;;;;;;4950369;28;20102;-77
2021/04/28 11:35:44;;;;;;;11.82;7.40;;;16.40;90.60;;;;;;4966296;28;20154;-76
2021/04/28 11:38:17;;;;;;;13.98;7.63;;;16.40;90.50;;;;;;4954047;28;20075;-77
2021/04/28 11:41:00;;;;;;;12.40;8.18;;;16.40;90.30;;;;;;4955874;28;20076;-78
2021/04/28 11:43:26;;;;;;;9.13;7.45;;;16.50;90.90;;;;;;4957309;28;20104;-76
2021/04/28 11:45:54;;;;;;;11.98;8.35;;;16.90;90.20;;;;;;4960290;28;20202;-76
2021/04/28 11:48:22;;;;;;;11.25;8.48;;;17.00;89.10;;;;;;4955370;28;20099;-77
2021/04/28 11:50:50;;;;;;;9.43;7.43;;;16.90;87.00;;;;;;4952130;28;20075;-76
2021/04/28 11:53:15;;;;;;;10.13;8.00;;;17.00;88.90;;;;;;4956231;28;20075;-76
2021/04/28 11:55:41;;;;;;;10.77;7.50;;;17.10;91.10;;;;;;4950423;28;20117;-76
2021/04/28 11:58:27;;;;;;;12.35;8.15;;;17.40;90.70;;;;;;4954039;28;20076;-76
2021/04/28 12:01:13;;;;;;;14.18;8.45;;;17.10;85.70;;;;;;4971988;28;20075;-76
2021/04/28 12:03:55;;;;;;;15.57;7.85;;;16.90;84.50;;;;;;4963936;28;20122;-75
2021/04/28 12:06:29;;;;;;;12.13;6.93;;;17.10;90.10;;;;;;4951625;28;20590;-76
2021/04/28 12:09:15;;;;;;;16.40;7.55;;;16.90;86.10;;;;;;4951558;28;20099;-76
2021/04/28 12:11:42;;;;;;;11.48;7.93;;;16.90;86.90;;;;;;4967311;28;20605;-77
2021/04/28 12:14:08;;;;;;;10.82;6.93;;;16.90;82.70;;;;;;4954638;28;20464;-77
2021/04/28 12:16:41;;;;;;;11.73;8.27;;;17.10;85.30;;;;;;4960360;28;20081;-77
2021/04/28 12:19:13;;;;;;;9.73;6.85;;;17.10;81.40;;;;;;4949556;28;20097;-75
2021/04/28 12:21:52;;;;;;;10.15;7.97;;;17.10;82.70;;;;;;4953047;28;20079;-76
2021/04/28 12:24:45;;;;;;;11.40;7.53;;;17.20;79.90;;;;;;4966196;28;20323;-77
2021/04/28 12:27:16;;;;;;;11.93;7.60;;;17.20;81.50;;;;;;4955334;28;20103;-80
2021/04/28 12:30:03;;;;;;;12.45;6.75;;;17.20;81.10;;;;;;4961595;28;20102;-77
2021/04/28 12:32:35;;;;;;;10.70;6.88;;;17.20;79.80;;;;;;4962502;28;20118;-76
2021/04/28 12:35:16;;;;;;;12.30;7.80;;;17.20;78.80;;;;;;4950413;28;20623;-77
2021/04/28 12:37:56;;;;;;;9.75;6.57;;;17.50;78.30;;;;;;4966429;28;20163;-77
2021/04/28 12:40:43;;;;;;;9.38;6.53;;;17.30;78.00;;;;;;4971247;28;20078;-77
2021/04/28 12:43:11;;;;;;;11.50;6.65;;;17.40;75.10;;;;;;4973134;28;20075;-76
2021/04/28 12:45:37;;;;;;;8.73;6.85;;;17.40;78.20;;;;;;4963427;28;20114;-77
2021/04/28 12:48:13;;;;;;;11.38;7.55;;;17.80;76.90;;;;;;4956358;28;20095;-75
2021/04/28 12:50:41;;;;;;;9.43;6.03;;;17.90;75.00;;;;;;4948794;28;20082;-78
2021/04/28 12:53:18;;;;;;;12.23;6.38;;;17.90;73.80;;;;;;4957475;28;20138;-78
2021/04/28 12:55:51;;;;;;;8.35;5.93;;;17.60;71.00;;;;;;4951056;28;20086;-78